PWSweather.com
Personal Weather Stations
Station Observations
SELKIRK1
Ontario, Selkirk, ON N0A 1P0

OntarioSelkirk, ON N0A 1P0

Lat: 42.8083652, Lon: -79.94971040000001

Elevation: 583

Station Type: Acurite 5 in 1

http://gavinsurf.com

High Low Average
Temperature 72.5°F22.5°C 53.3°F11.8°C 64.6°F18.1°C
Dew Point 66.0°F18.9°C 47.2°F8.4°C 59.8°F15.4°C
Winds 4.6 mph 7.4 kmh Calm Calm 2.0 mph SE3.2 kmh SE
Wind Gusts 5.8 mph9.3 kmh -- 3.0 mph4.8 kmh
Humidity 99% 71% 85%
Pressure 31.83 in1077.9 mb 31.83 in1077.9 mb -
Precipitation 0.01 in0.3 mm - -
Hour Temp Dew Point Humidity Winds Wind Gusts Pressure Precip Precip Rate Daily Precip Total
12:00 AM 56.5°F13.6°C 47.2°F8.4°C 71% 3.5 mph N5.6 kmh N 3.5 mph5.6 kmh 31.83 in1077.9 mb - 0.00 in0.0 mm 0.00 in0.0 mm
12:10 AM 56.5°F13.6°C 47.2°F8.4°C 71% 3.5 mph N5.6 kmh N 3.5 mph5.6 kmh 31.83 in1077.9 mb - 0.00 in0.0 mm 0.00 in0.0 mm
12:15 AM 56.5°F13.6°C 47.2°F8.4°C 71% 3.5 mph N5.6 kmh N 3.5 mph5.6 kmh 31.83 in1077.9 mb - 0.00 in0.0 mm 0.00 in0.0 mm
12:20 AM 56.5°F13.6°C 47.2°F8.4°C 71% 3.5 mph N5.6 kmh N 3.5 mph5.6 kmh 31.83 in1077.9 mb - 0.00 in0.0 mm 0.00 in0.0 mm
12:25 AM 56.5°F13.6°C 47.2°F8.4°C 71% 1.2 mph NNE1.9 kmh NNE 1.2 mph1.9 kmh 31.83 in1077.9 mb - 0.00 in0.0 mm 0.00 in0.0 mm
12:30 AM 56.5°F13.6°C 47.6°F8.7°C 72% 2.3 mph N3.7 kmh N 2.3 mph3.7 kmh 31.83 in1077.9 mb - 0.00 in0.0 mm 0.00 in0.0 mm
12:35 AM 56.2°F13.4°C 47.2°F8.4°C 72% 3.5 mph NE5.6 kmh NE 3.5 mph5.6 kmh 31.83 in1077.9 mb - 0.00 in0.0 mm 0.00 in0.0 mm
12:40 AM 56.1°F13.4°C 47.5°F8.6°C 73% 1.2 mph NNE1.9 kmh NNE 1.2 mph1.9 kmh 31.83 in1077.9 mb - 0.00 in0.0 mm 0.00 in0.0 mm
12:45 AM 56.1°F13.4°C 47.5°F8.6°C 73% 1.2 mph N1.9 kmh N 2.3 mph3.7 kmh 31.83 in1077.9 mb - 0.00 in0.0 mm 0.00 in0.0 mm
12:50 AM 56.0°F13.3°C 47.4°F8.6°C 73% 3.5 mph N5.6 kmh N 4.6 mph7.4 kmh 31.83 in1077.9 mb - 0.00 in0.0 mm 0.00 in0.0 mm
12:55 AM 56.0°F13.3°C 47.8°F8.8°C 74% 4.6 mph N7.4 kmh N 4.6 mph7.4 kmh 31.83 in1077.9 mb - 0.00 in0.0 mm 0.00 in0.0 mm
01:00 AM 55.5°F13.1°C 47.7°F8.7°C 75% 4.6 mph N7.4 kmh N 4.6 mph7.4 kmh 31.83 in1077.9 mb - 0.00 in0.0 mm 0.00 in0.0 mm
01:10 AM 55.0°F12.8°C 47.9°F8.8°C 77% 4.6 mph N7.4 kmh N 4.6 mph7.4 kmh 31.83 in1077.9 mb - 0.00 in0.0 mm 0.00 in0.0 mm
01:15 AM 54.9°F12.7°C 48.1°F8.9°C 78% 2.3 mph N3.7 kmh N 2.3 mph3.7 kmh 31.83 in1077.9 mb - 0.00 in0.0 mm 0.00 in0.0 mm
01:20 AM 54.5°F12.5°C 47.8°F8.8°C 78% 4.6 mph N7.4 kmh N 3.5 mph5.6 kmh 31.83 in1077.9 mb - 0.00 in0.0 mm 0.00 in0.0 mm
01:25 AM 54.3°F12.4°C 47.9°F8.8°C 79% 3.5 mph N5.6 kmh N 3.5 mph5.6 kmh 31.83 in1077.9 mb - 0.00 in0.0 mm 0.00 in0.0 mm
01:30 AM 54.3°F12.4°C 47.9°F8.8°C 79% 2.3 mph N3.7 kmh N 2.3 mph3.7 kmh 31.83 in1077.9 mb - 0.00 in0.0 mm 0.00 in0.0 mm
01:35 AM 54.3°F12.4°C 47.9°F8.8°C 79% 3.5 mph N5.6 kmh N 3.5 mph5.6 kmh 31.83 in1077.9 mb - 0.00 in0.0 mm 0.00 in0.0 mm
01:40 AM 54.2°F12.3°C 48.1°F8.9°C 80% 2.3 mph NNE3.7 kmh NNE 2.3 mph3.7 kmh 31.83 in1077.9 mb - 0.00 in0.0 mm 0.00 in0.0 mm
01:45 AM 54.1°F12.3°C 48.1°F8.9°C 80% 1.2 mph N1.9 kmh N 2.3 mph3.7 kmh 31.83 in1077.9 mb - 0.00 in0.0 mm 0.00 in0.0 mm
01:50 AM 54.0°F12.2°C 47.9°F8.8°C 80% 3.5 mph N5.6 kmh N 2.3 mph3.7 kmh 31.83 in1077.9 mb - 0.00 in0.0 mm 0.00 in0.0 mm
01:55 AM 54.0°F12.2°C 48.3°F9.1°C 81% 3.5 mph N5.6 kmh N 4.6 mph7.4 kmh 31.83 in1077.9 mb - 0.00 in0.0 mm 0.00 in0.0 mm
02:00 AM 53.8°F12.1°C 48.4°F9.1°C 82% 2.3 mph N3.7 kmh N 2.3 mph3.7 kmh 31.83 in1077.9 mb - 0.00 in0.0 mm 0.00 in0.0 mm
02:10 AM 53.8°F12.1°C 48.4°F9.1°C 82% 1.2 mph N1.9 kmh N 2.3 mph3.7 kmh 31.83 in1077.9 mb - 0.00 in0.0 mm 0.00 in0.0 mm
02:15 AM 53.8°F12.1°C 48.7°F9.3°C 83% 2.3 mph N3.7 kmh N 2.3 mph3.7 kmh 31.83 in1077.9 mb - 0.00 in0.0 mm 0.00 in0.0 mm
02:20 AM 53.7°F12.1°C 48.9°F9.4°C 84% 2.3 mph N3.7 kmh N 3.5 mph5.6 kmh 31.83 in1077.9 mb - 0.00 in0.0 mm 0.00 in0.0 mm
02:25 AM 53.6°F12.0°C 48.5°F9.2°C 83% 3.5 mph N5.6 kmh N 3.5 mph5.6 kmh 31.83 in1077.9 mb - 0.00 in0.0 mm 0.00 in0.0 mm
02:30 AM 53.6°F12.0°C 48.9°F9.4°C 84% 2.3 mph N3.7 kmh N 2.3 mph3.7 kmh 31.83 in1077.9 mb - 0.00 in0.0 mm 0.00 in0.0 mm
02:35 AM 53.8°F12.1°C 49.1°F9.5°C 84% 2.3 mph N3.7 kmh N 3.5 mph5.6 kmh 31.83 in1077.9 mb - 0.00 in0.0 mm 0.00 in0.0 mm
02:40 AM 53.7°F12.1°C 49.3°F9.6°C 85% 3.5 mph N5.6 kmh N 4.6 mph7.4 kmh 31.83 in1077.9 mb - 0.00 in0.0 mm 0.00 in0.0 mm
02:45 AM 53.3°F11.8°C 49.2°F9.6°C 86% 4.6 mph N7.4 kmh N 4.6 mph7.4 kmh 31.83 in1077.9 mb - 0.00 in0.0 mm 0.00 in0.0 mm
02:50 AM 53.3°F11.8°C 49.8°F9.9°C 88% 3.5 mph N5.6 kmh N 3.5 mph5.6 kmh 31.83 in1077.9 mb - 0.00 in0.0 mm 0.00 in0.0 mm
02:55 AM 53.3°F11.8°C 49.2°F9.6°C 86% 2.3 mph N3.7 kmh N 3.5 mph5.6 kmh 31.83 in1077.9 mb - 0.00 in0.0 mm 0.00 in0.0 mm
03:00 AM 53.3°F11.8°C 49.5°F9.7°C 87% 3.5 mph N5.6 kmh N 3.5 mph5.6 kmh 31.83 in1077.9 mb - 0.00 in0.0 mm 0.00 in0.0 mm
03:10 AM 53.3°F11.8°C 49.8°F9.9°C 88% 1.2 mph NNE1.9 kmh NNE 1.2 mph1.9 kmh 31.83 in1077.9 mb - 0.00 in0.0 mm 0.00 in0.0 mm
03:15 AM 53.4°F11.9°C 51.4°F10.8°C 93% Calm Calm -- 31.83 in1077.9 mb - 0.00 in0.0 mm 0.00 in0.0 mm
03:20 AM 53.6°F12.0°C 51.9°F11.1°C 94% Calm Calm -- 31.83 in1077.9 mb - 0.00 in0.0 mm 0.00 in0.0 mm
03:25 AM 53.6°F12.0°C 52.5°F11.4°C 96% Calm Calm -- 31.83 in1077.9 mb - 0.00 in0.0 mm 0.00 in0.0 mm
03:30 AM 53.6°F12.0°C 52.7°F11.5°C 97% Calm Calm -- 31.83 in1077.9 mb - 0.00 in0.0 mm 0.00 in0.0 mm
03:35 AM 53.6°F12.0°C 53.0°F11.7°C 98% Calm Calm -- 31.83 in1077.9 mb - 0.00 in0.0 mm 0.00 in0.0 mm
03:40 AM 53.8°F12.1°C 53.2°F11.8°C 98% Calm Calm -- 31.83 in1077.9 mb - 0.00 in0.0 mm 0.00 in0.0 mm
03:45 AM 53.8°F12.1°C 53.2°F11.8°C 98% Calm Calm -- 31.83 in1077.9 mb - 0.00 in0.0 mm 0.00 in0.0 mm
03:50 AM 53.6°F12.0°C 53.0°F11.7°C 98% Calm Calm -- 31.83 in1077.9 mb - 0.00 in0.0 mm 0.00 in0.0 mm
03:55 AM 54.3°F12.4°C 54.0°F12.2°C 99% 1.2 mph SSW1.9 kmh SSW 2.3 mph3.7 kmh 31.83 in1077.9 mb - 0.00 in0.0 mm 0.00 in0.0 mm
04:00 AM 54.9°F12.7°C 54.6°F12.6°C 99% 2.3 mph SW3.7 kmh SW 1.2 mph1.9 kmh 31.83 in1077.9 mb - 0.00 in0.0 mm 0.00 in0.0 mm
04:10 AM 56.3°F13.5°C 56.0°F13.3°C 99% 2.3 mph SW3.7 kmh SW 2.3 mph3.7 kmh 31.83 in1077.9 mb - 0.00 in0.0 mm 0.00 in0.0 mm
04:15 AM 56.0°F13.3°C 55.7°F13.2°C 99% Calm Calm -- 31.83 in1077.9 mb - 0.00 in0.0 mm 0.00 in0.0 mm
04:20 AM 56.0°F13.3°C 55.7°F13.2°C 99% Calm Calm -- 31.83 in1077.9 mb - 0.00 in0.0 mm 0.00 in0.0 mm
04:25 AM 56.5°F13.6°C 56.2°F13.4°C 99% 2.3 mph WSW3.7 kmh WSW 2.3 mph3.7 kmh 31.83 in1077.9 mb - 0.00 in0.0 mm 0.00 in0.0 mm
04:30 AM 56.7°F13.7°C 56.5°F13.6°C 99% 1.2 mph WSW1.9 kmh WSW 2.3 mph3.7 kmh 31.83 in1077.9 mb - 0.00 in0.0 mm 0.00 in0.0 mm
04:35 AM 57.4°F14.1°C 57.2°F14.0°C 99% 2.3 mph S3.7 kmh S 3.5 mph5.6 kmh 31.83 in1077.9 mb - 0.00 in0.0 mm 0.00 in0.0 mm
04:40 AM 57.7°F14.3°C 57.4°F14.1°C 99% 2.3 mph SW3.7 kmh SW 3.5 mph5.6 kmh 31.83 in1077.9 mb - 0.00 in0.0 mm 0.00 in0.0 mm
04:45 AM 58.6°F14.8°C 58.3°F14.6°C 99% 4.6 mph WSW7.4 kmh WSW 5.8 mph9.3 kmh 31.83 in1077.9 mb - 0.00 in0.0 mm 0.00 in0.0 mm
04:50 AM 58.8°F14.9°C 58.5°F14.7°C 99% 3.5 mph SW5.6 kmh SW 3.5 mph5.6 kmh 31.83 in1077.9 mb - 0.00 in0.0 mm 0.00 in0.0 mm
04:55 AM 59.0°F15.0°C 58.7°F14.8°C 99% 2.3 mph SW3.7 kmh SW 3.5 mph5.6 kmh 31.83 in1077.9 mb - 0.00 in0.0 mm 0.00 in0.0 mm
05:00 AM 59.1°F15.1°C 58.9°F14.9°C 99% 4.6 mph WSW7.4 kmh WSW 4.6 mph7.4 kmh 31.83 in1077.9 mb - 0.00 in0.0 mm 0.00 in0.0 mm
05:10 AM 59.2°F15.1°C 58.9°F14.9°C 99% 3.5 mph W5.6 kmh W 2.3 mph3.7 kmh 31.83 in1077.9 mb - 0.00 in0.0 mm 0.00 in0.0 mm
05:15 AM 59.2°F15.1°C 58.9°F14.9°C 99% 2.3 mph SW3.7 kmh SW 2.3 mph3.7 kmh 31.83 in1077.9 mb - 0.00 in0.0 mm 0.00 in0.0 mm
05:20 AM 59.4°F15.2°C 59.1°F15.1°C 99% 2.3 mph SW3.7 kmh SW 3.5 mph5.6 kmh 31.83 in1077.9 mb - 0.00 in0.0 mm 0.00 in0.0 mm
05:25 AM 59.7°F15.4°C 59.4°F15.2°C 99% 4.6 mph S7.4 kmh S 5.8 mph9.3 kmh 31.83 in1077.9 mb - 0.00 in0.0 mm 0.00 in0.0 mm
05:30 AM 59.9°F15.5°C 59.6°F15.3°C 99% 4.6 mph SSW7.4 kmh SSW 4.6 mph7.4 kmh 31.83 in1077.9 mb - 0.00 in0.0 mm 0.00 in0.0 mm
05:35 AM 60.1°F15.6°C 59.8°F15.4°C 99% 4.6 mph SSW7.4 kmh SSW 4.6 mph7.4 kmh 31.83 in1077.9 mb - 0.00 in0.0 mm 0.00 in0.0 mm
05:40 AM 60.1°F15.6°C 59.8°F15.4°C 99% 3.5 mph S5.6 kmh S 3.5 mph5.6 kmh 31.83 in1077.9 mb - 0.00 in0.0 mm 0.00 in0.0 mm
05:45 AM 60.3°F15.7°C 60.0°F15.6°C 99% 3.5 mph S5.6 kmh S 3.5 mph5.6 kmh 31.83 in1077.9 mb - 0.00 in0.0 mm 0.00 in0.0 mm
05:50 AM 60.5°F15.8°C 60.2°F15.7°C 99% 4.6 mph S7.4 kmh S 4.6 mph7.4 kmh 31.83 in1077.9 mb - 0.00 in0.0 mm 0.00 in0.0 mm
05:55 AM 60.6°F15.9°C 60.3°F15.7°C 99% 4.6 mph SSE7.4 kmh SSE 4.6 mph7.4 kmh 31.83 in1077.9 mb - 0.00 in0.0 mm 0.00 in0.0 mm
06:00 AM 60.7°F15.9°C 60.4°F15.8°C 99% 2.3 mph SSE3.7 kmh SSE 2.3 mph3.7 kmh 31.83 in1077.9 mb - 0.00 in0.0 mm 0.00 in0.0 mm
06:10 AM 60.8°F16.0°C 60.5°F15.8°C 99% 2.3 mph SSW3.7 kmh SSW 4.6 mph7.4 kmh 31.83 in1077.9 mb - 0.00 in0.0 mm 0.00 in0.0 mm
06:15 AM 60.8°F16.0°C 60.5°F15.8°C 99% 4.6 mph S7.4 kmh S 4.6 mph7.4 kmh 31.83 in1077.9 mb - 0.00 in0.0 mm 0.00 in0.0 mm
06:20 AM 60.6°F15.9°C 60.3°F15.7°C 99% 4.6 mph S7.4 kmh S 5.8 mph9.3 kmh 31.83 in1077.9 mb - 0.00 in0.0 mm 0.00 in0.0 mm
06:25 AM 60.6°F15.9°C 60.3°F15.7°C 99% 3.5 mph SE5.6 kmh SE 3.5 mph5.6 kmh 31.83 in1077.9 mb - 0.00 in0.0 mm 0.00 in0.0 mm
06:30 AM 60.6°F15.9°C 60.3°F15.7°C 99% 3.5 mph S5.6 kmh S 4.6 mph7.4 kmh 31.83 in1077.9 mb - 0.00 in0.0 mm 0.00 in0.0 mm
06:35 AM 60.8°F16.0°C 60.5°F15.8°C 99% 3.5 mph SSW5.6 kmh SSW 3.5 mph5.6 kmh 31.83 in1077.9 mb - 0.00 in0.0 mm 0.00 in0.0 mm
06:40 AM 61.0°F16.1°C 60.4°F15.8°C 98% 3.5 mph SE5.6 kmh SE 3.5 mph5.6 kmh 31.83 in1077.9 mb - 0.00 in0.0 mm 0.00 in0.0 mm
06:45 AM 61.2°F16.2°C 60.6°F15.9°C 98% 3.5 mph SE5.6 kmh SE 3.5 mph5.6 kmh 31.83 in1077.9 mb - 0.00 in0.0 mm 0.00 in0.0 mm
06:50 AM 61.2°F16.2°C 60.6°F15.9°C 98% 3.5 mph S5.6 kmh S 4.6 mph7.4 kmh 31.83 in1077.9 mb - 0.00 in0.0 mm 0.00 in0.0 mm
06:55 AM 62.0°F16.7°C 61.2°F16.2°C 97% Calm Calm 1.2 mph1.9 kmh 31.83 in1077.9 mb - 0.00 in0.0 mm 0.00 in0.0 mm
07:00 AM 62.1°F16.7°C 60.9°F16.1°C 96% 2.3 mph S3.7 kmh S 3.5 mph5.6 kmh 31.83 in1077.9 mb - 0.00 in0.0 mm 0.00 in0.0 mm
07:10 AM 62.1°F16.7°C 60.9°F16.1°C 96% 2.3 mph S3.7 kmh S 2.3 mph3.7 kmh 31.83 in1077.9 mb - 0.00 in0.0 mm 0.00 in0.0 mm
07:15 AM 61.7°F16.5°C 60.8°F16.0°C 97% 2.3 mph SSE3.7 kmh SSE 3.5 mph5.6 kmh 31.83 in1077.9 mb - 0.00 in0.0 mm 0.00 in0.0 mm
07:20 AM 61.9°F16.6°C 61.0°F16.1°C 97% 2.3 mph SE3.7 kmh SE 3.5 mph5.6 kmh 31.83 in1077.9 mb - 0.00 in0.0 mm 0.00 in0.0 mm
07:25 AM 63.1°F17.3°C 61.3°F16.3°C 94% 2.3 mph ESE3.7 kmh ESE 3.5 mph5.6 kmh 31.83 in1077.9 mb - 0.01 in0.3 mm 0.01 in0.3 mm
07:30 AM 63.0°F17.2°C 61.2°F16.2°C 94% 1.2 mph E1.9 kmh E 1.2 mph1.9 kmh 31.83 in1077.9 mb - 0.01 in0.3 mm 0.01 in0.3 mm
07:35 AM 63.2°F17.3°C 61.1°F16.2°C 93% 2.3 mph ESE3.7 kmh ESE 2.3 mph3.7 kmh 31.83 in1077.9 mb - 0.01 in0.3 mm 0.01 in0.3 mm
07:40 AM 63.3°F17.4°C 60.9°F16.1°C 92% 2.3 mph ESE3.7 kmh ESE 3.5 mph5.6 kmh 31.83 in1077.9 mb - 0.01 in0.3 mm 0.01 in0.3 mm
07:45 AM 63.2°F17.3°C 60.8°F16.0°C 92% 2.3 mph ESE3.7 kmh ESE 2.3 mph3.7 kmh 31.83 in1077.9 mb - 0.01 in0.3 mm 0.01 in0.3 mm
07:50 AM 63.3°F17.4°C 60.9°F16.1°C 92% 2.3 mph E3.7 kmh E 2.3 mph3.7 kmh 31.83 in1077.9 mb - 0.01 in0.3 mm 0.01 in0.3 mm
07:55 AM 63.5°F17.5°C 60.8°F16.0°C 91% 2.3 mph SE3.7 kmh SE 2.3 mph3.7 kmh 31.83 in1077.9 mb - 0.01 in0.3 mm 0.01 in0.3 mm
08:00 AM 63.5°F17.5°C 60.2°F15.7°C 89% 2.3 mph ESE3.7 kmh ESE 2.3 mph3.7 kmh 31.83 in1077.9 mb - 0.01 in0.3 mm 0.01 in0.3 mm
08:10 AM 63.9°F17.7°C 60.3°F15.7°C 88% 2.3 mph ESE3.7 kmh ESE 3.5 mph5.6 kmh 31.83 in1077.9 mb - 0.01 in0.3 mm 0.01 in0.3 mm
08:15 AM 64.1°F17.8°C 59.9°F15.5°C 86% 2.3 mph E3.7 kmh E 3.5 mph5.6 kmh 31.83 in1077.9 mb - 0.01 in0.3 mm 0.01 in0.3 mm
08:20 AM 64.1°F17.8°C 60.2°F15.7°C 87% 3.5 mph SE5.6 kmh SE 3.5 mph5.6 kmh 31.83 in1077.9 mb - 0.01 in0.3 mm 0.01 in0.3 mm
08:25 AM 64.8°F18.2°C 60.9°F16.1°C 87% 2.3 mph SE3.7 kmh SE 2.3 mph3.7 kmh 31.83 in1077.9 mb - 0.00 in0.0 mm 0.01 in0.3 mm
08:30 AM 65.1°F18.4°C 60.8°F16.0°C 86% 2.3 mph E3.7 kmh E 2.3 mph3.7 kmh 31.83 in1077.9 mb - 0.00 in0.0 mm 0.01 in0.3 mm
08:35 AM 64.5°F18.1°C 60.6°F15.9°C 87% 2.3 mph SSE3.7 kmh SSE 3.5 mph5.6 kmh 31.83 in1077.9 mb - 0.00 in0.0 mm 0.01 in0.3 mm
08:40 AM 64.4°F18.0°C 60.8°F16.0°C 88% 2.3 mph E3.7 kmh E 3.5 mph5.6 kmh 31.83 in1077.9 mb - 0.00 in0.0 mm 0.01 in0.3 mm
08:45 AM 64.8°F18.2°C 60.9°F16.1°C 87% 2.3 mph SE3.7 kmh SE 2.3 mph3.7 kmh 31.83 in1077.9 mb - 0.00 in0.0 mm 0.01 in0.3 mm
08:50 AM 65.1°F18.4°C 61.1°F16.2°C 87% 2.3 mph ESE3.7 kmh ESE 2.3 mph3.7 kmh 31.83 in1077.9 mb - 0.00 in0.0 mm 0.01 in0.3 mm
08:55 AM 64.4°F18.0°C 60.7°F15.9°C 88% 3.5 mph E5.6 kmh E 3.5 mph5.6 kmh 31.83 in1077.9 mb - 0.00 in0.0 mm 0.01 in0.3 mm
09:00 AM 64.7°F18.2°C 61.0°F16.1°C 88% 3.5 mph E5.6 kmh E 3.5 mph5.6 kmh 31.83 in1077.9 mb - 0.00 in0.0 mm 0.01 in0.3 mm
09:10 AM 65.0°F18.3°C 61.3°F16.3°C 88% 3.5 mph ESE5.6 kmh ESE 5.8 mph9.3 kmh 31.83 in1077.9 mb - 0.00 in0.0 mm 0.01 in0.3 mm
09:15 AM 65.1°F18.4°C 61.4°F16.3°C 88% 3.5 mph ESE5.6 kmh ESE 4.6 mph7.4 kmh 31.83 in1077.9 mb - 0.00 in0.0 mm 0.01 in0.3 mm
09:20 AM 65.2°F18.4°C 61.6°F16.4°C 88% 3.5 mph E5.6 kmh E 5.8 mph9.3 kmh 31.83 in1077.9 mb - 0.00 in0.0 mm 0.01 in0.3 mm
09:25 AM 65.6°F18.7°C 61.6°F16.4°C 87% 2.3 mph SE3.7 kmh SE 3.5 mph5.6 kmh 31.83 in1077.9 mb - 0.00 in0.0 mm 0.01 in0.3 mm
09:30 AM 66.0°F18.9°C 61.7°F16.5°C 86% 2.3 mph ESE3.7 kmh ESE 2.3 mph3.7 kmh 31.83 in1077.9 mb - 0.00 in0.0 mm 0.01 in0.3 mm
09:35 AM 65.6°F18.7°C 61.6°F16.4°C 87% 3.5 mph ESE5.6 kmh ESE 3.5 mph5.6 kmh 31.83 in1077.9 mb - 0.00 in0.0 mm 0.01 in0.3 mm
09:40 AM 65.7°F18.7°C 61.4°F16.3°C 86% 3.5 mph E5.6 kmh E 3.5 mph5.6 kmh 31.83 in1077.9 mb - 0.00 in0.0 mm 0.01 in0.3 mm
09:45 AM 65.9°F18.8°C 61.9°F16.6°C 87% 2.3 mph ESE3.7 kmh ESE 3.5 mph5.6 kmh 31.83 in1077.9 mb - 0.00 in0.0 mm 0.01 in0.3 mm
09:50 AM 66.1°F18.9°C 61.5°F16.4°C 85% 3.5 mph ESE5.6 kmh ESE 3.5 mph5.6 kmh 31.83 in1077.9 mb - 0.00 in0.0 mm 0.01 in0.3 mm
09:55 AM 66.1°F18.9°C 61.4°F16.3°C 85% 3.5 mph SE5.6 kmh SE 3.5 mph5.6 kmh 31.83 in1077.9 mb - 0.00 in0.0 mm 0.01 in0.3 mm
10:00 AM 65.9°F18.8°C 61.6°F16.4°C 86% 3.5 mph NE5.6 kmh NE 3.5 mph5.6 kmh 31.83 in1077.9 mb - 0.00 in0.0 mm 0.01 in0.3 mm
10:10 AM 66.2°F19.0°C 62.2°F16.8°C 87% 3.5 mph E5.6 kmh E 5.8 mph9.3 kmh 31.83 in1077.9 mb - 0.00 in0.0 mm 0.01 in0.3 mm
10:15 AM 66.3°F19.1°C 62.3°F16.8°C 87% 3.5 mph ESE5.6 kmh ESE 4.6 mph7.4 kmh 31.83 in1077.9 mb - 0.00 in0.0 mm 0.01 in0.3 mm
10:20 AM 66.4°F19.1°C 62.1°F16.7°C 86% 3.5 mph ESE5.6 kmh ESE 3.5 mph5.6 kmh 31.83 in1077.9 mb - 0.00 in0.0 mm 0.01 in0.3 mm
10:25 AM 66.2°F19.0°C 61.9°F16.6°C 86% 3.5 mph E5.6 kmh E 4.6 mph7.4 kmh 31.83 in1077.9 mb - 0.00 in0.0 mm 0.01 in0.3 mm
10:30 AM 66.2°F19.0°C 61.6°F16.4°C 85% 3.5 mph ESE5.6 kmh ESE 4.6 mph7.4 kmh 31.83 in1077.9 mb - 0.00 in0.0 mm 0.01 in0.3 mm
10:35 AM 66.4°F19.1°C 61.8°F16.6°C 85% 3.5 mph ESE5.6 kmh ESE 3.5 mph5.6 kmh 31.83 in1077.9 mb - 0.00 in0.0 mm 0.01 in0.3 mm
10:40 AM 66.8°F19.3°C 61.8°F16.6°C 84% 3.5 mph E5.6 kmh E 4.6 mph7.4 kmh 31.83 in1077.9 mb - 0.00 in0.0 mm 0.01 in0.3 mm
10:45 AM 66.4°F19.1°C 61.1°F16.2°C 83% 4.6 mph SE7.4 kmh SE 5.8 mph9.3 kmh 31.83 in1077.9 mb - 0.00 in0.0 mm 0.01 in0.3 mm
10:50 AM 66.9°F19.4°C 61.9°F16.6°C 84% 3.5 mph SE5.6 kmh SE 4.6 mph7.4 kmh 31.83 in1077.9 mb - 0.00 in0.0 mm 0.01 in0.3 mm
10:55 AM 66.5°F19.2°C 61.5°F16.4°C 84% 3.5 mph E5.6 kmh E 3.5 mph5.6 kmh 31.83 in1077.9 mb - 0.00 in0.0 mm 0.01 in0.3 mm
11:00 AM 67.1°F19.5°C 62.1°F16.7°C 84% 3.5 mph E5.6 kmh E 3.5 mph5.6 kmh 31.83 in1077.9 mb - 0.00 in0.0 mm 0.01 in0.3 mm
11:10 AM 67.1°F19.5°C 61.7°F16.5°C 83% 3.5 mph ESE5.6 kmh ESE 4.6 mph7.4 kmh 31.83 in1077.9 mb - 0.00 in0.0 mm 0.01 in0.3 mm
11:15 AM 67.1°F19.5°C 61.4°F16.3°C 82% 3.5 mph ESE5.6 kmh ESE 4.6 mph7.4 kmh 31.83 in1077.9 mb - 0.00 in0.0 mm 0.01 in0.3 mm
11:20 AM 67.8°F19.9°C 61.7°F16.5°C 81% 3.5 mph SE5.6 kmh SE 4.6 mph7.4 kmh 31.83 in1077.9 mb - 0.00 in0.0 mm 0.01 in0.3 mm
11:25 AM 67.1°F19.5°C 61.7°F16.5°C 83% 3.5 mph ESE5.6 kmh ESE 3.5 mph5.6 kmh 31.83 in1077.9 mb - 0.00 in0.0 mm 0.01 in0.3 mm
11:30 AM 67.7°F19.8°C 61.6°F16.4°C 81% 3.5 mph ENE5.6 kmh ENE 3.5 mph5.6 kmh 31.83 in1077.9 mb - 0.00 in0.0 mm 0.01 in0.3 mm
11:35 AM 67.7°F19.8°C 61.6°F16.4°C 81% 2.3 mph ESE3.7 kmh ESE 3.5 mph5.6 kmh 31.83 in1077.9 mb - 0.00 in0.0 mm 0.01 in0.3 mm
11:40 AM 68.0°F20.0°C 61.9°F16.6°C 81% 3.5 mph SE5.6 kmh SE 5.8 mph9.3 kmh 31.83 in1077.9 mb - 0.00 in0.0 mm 0.01 in0.3 mm
11:45 AM 68.3°F20.2°C 61.9°F16.6°C 80% 3.5 mph SE5.6 kmh SE 3.5 mph5.6 kmh 31.83 in1077.9 mb - 0.00 in0.0 mm 0.01 in0.3 mm
11:50 AM 68.4°F20.2°C 62.0°F16.7°C 80% 3.5 mph ESE5.6 kmh ESE 3.5 mph5.6 kmh 31.83 in1077.9 mb - 0.00 in0.0 mm 0.01 in0.3 mm
11:55 AM 67.8°F19.9°C 61.7°F16.5°C 81% 3.5 mph E5.6 kmh E 3.5 mph5.6 kmh 31.83 in1077.9 mb - 0.00 in0.0 mm 0.01 in0.3 mm
12:00 PM 68.8°F20.4°C 62.0°F16.7°C 79% 2.3 mph ESE3.7 kmh ESE 3.5 mph5.6 kmh 31.83 in1077.9 mb - 0.00 in0.0 mm 0.01 in0.3 mm
12:10 PM 69.6°F20.9°C 62.4°F16.9°C 78% 3.5 mph ESE5.6 kmh ESE 3.5 mph5.6 kmh 31.83 in1077.9 mb - 0.00 in0.0 mm 0.01 in0.3 mm
12:15 PM 69.7°F20.9°C 62.5°F16.9°C 78% 3.5 mph SE5.6 kmh SE 3.5 mph5.6 kmh 31.83 in1077.9 mb - 0.00 in0.0 mm 0.01 in0.3 mm
12:20 PM 69.8°F21.0°C 62.2°F16.8°C 77% 4.6 mph E7.4 kmh E 5.8 mph9.3 kmh 31.83 in1077.9 mb - 0.00 in0.0 mm 0.01 in0.3 mm
12:25 PM 69.8°F21.0°C 62.6°F17.0°C 78% 3.5 mph SE5.6 kmh SE 4.6 mph7.4 kmh 31.83 in1077.9 mb - 0.00 in0.0 mm 0.01 in0.3 mm
12:30 PM 68.6°F20.3°C 61.8°F16.6°C 79% 3.5 mph E5.6 kmh E 4.6 mph7.4 kmh 31.83 in1077.9 mb - 0.00 in0.0 mm 0.01 in0.3 mm
12:35 PM 68.2°F20.1°C 62.1°F16.7°C 81% 3.5 mph E5.6 kmh E 3.5 mph5.6 kmh 31.83 in1077.9 mb - 0.00 in0.0 mm 0.01 in0.3 mm
12:40 PM 68.9°F20.5°C 62.5°F16.9°C 80% 3.5 mph SE5.6 kmh SE 4.6 mph7.4 kmh 31.83 in1077.9 mb - 0.00 in0.0 mm 0.01 in0.3 mm
12:45 PM 68.7°F20.4°C 62.3°F16.8°C 80% 3.5 mph ESE5.6 kmh ESE 3.5 mph5.6 kmh 31.83 in1077.9 mb - 0.00 in0.0 mm 0.01 in0.3 mm
12:50 PM 68.6°F20.3°C 62.2°F16.8°C 80% 3.5 mph ESE5.6 kmh ESE 3.5 mph5.6 kmh 31.83 in1077.9 mb - 0.00 in0.0 mm 0.01 in0.3 mm
12:55 PM 68.9°F20.5°C 62.1°F16.7°C 79% 3.5 mph ESE5.6 kmh ESE 4.6 mph7.4 kmh 31.83 in1077.9 mb - 0.00 in0.0 mm 0.01 in0.3 mm
01:00 PM 68.6°F20.3°C 62.2°F16.8°C 80% 3.5 mph SE5.6 kmh SE 3.5 mph5.6 kmh 31.83 in1077.9 mb - 0.00 in0.0 mm 0.01 in0.3 mm
01:10 PM 69.2°F20.7°C 62.7°F17.1°C 80% 2.3 mph ESE3.7 kmh ESE 4.6 mph7.4 kmh 31.83 in1077.9 mb - 0.00 in0.0 mm 0.01 in0.3 mm
01:15 PM 69.4°F20.8°C 62.3°F16.8°C 78% 3.5 mph ENE5.6 kmh ENE 3.5 mph5.6 kmh 31.83 in1077.9 mb - 0.00 in0.0 mm 0.01 in0.3 mm
01:20 PM 69.6°F20.9°C 62.1°F16.7°C 77% 3.5 mph ESE5.6 kmh ESE 4.6 mph7.4 kmh 31.83 in1077.9 mb - 0.00 in0.0 mm 0.01 in0.3 mm
01:25 PM 70.2°F21.2°C 62.6°F17.0°C 77% 2.3 mph ESE3.7 kmh ESE 3.5 mph5.6 kmh 31.83 in1077.9 mb - 0.00 in0.0 mm 0.01 in0.3 mm
01:30 PM 70.5°F21.4°C 63.0°F17.2°C 77% 2.3 mph ESE3.7 kmh ESE 3.5 mph5.6 kmh 31.83 in1077.9 mb - 0.00 in0.0 mm 0.01 in0.3 mm
01:35 PM 70.7°F21.5°C 62.7°F17.1°C 76% 2.3 mph ESE3.7 kmh ESE 3.5 mph5.6 kmh 31.83 in1077.9 mb - 0.00 in0.0 mm 0.01 in0.3 mm
01:40 PM 70.8°F21.6°C 62.8°F17.1°C 76% 3.5 mph ESE5.6 kmh ESE 3.5 mph5.6 kmh 31.83 in1077.9 mb - 0.00 in0.0 mm 0.01 in0.3 mm
01:45 PM 71.1°F21.7°C 63.1°F17.3°C 76% 2.3 mph ESE3.7 kmh ESE 2.3 mph3.7 kmh 31.83 in1077.9 mb - 0.00 in0.0 mm 0.01 in0.3 mm
01:50 PM 70.9°F21.6°C 62.6°F17.0°C 75% 2.3 mph ESE3.7 kmh ESE 3.5 mph5.6 kmh 31.83 in1077.9 mb - 0.00 in0.0 mm 0.01 in0.3 mm
01:55 PM 71.3°F21.8°C 62.9°F17.2°C 75% 3.5 mph E5.6 kmh E 2.3 mph3.7 kmh 31.83 in1077.9 mb - 0.00 in0.0 mm 0.01 in0.3 mm
02:00 PM 71.4°F21.9°C 63.0°F17.2°C 75% 2.3 mph ESE3.7 kmh ESE 3.5 mph5.6 kmh 31.83 in1077.9 mb - 0.00 in0.0 mm 0.01 in0.3 mm
02:10 PM 71.4°F21.9°C 63.4°F17.4°C 76% 2.3 mph SE3.7 kmh SE 3.5 mph5.6 kmh 31.83 in1077.9 mb - 0.00 in0.0 mm 0.01 in0.3 mm
02:15 PM 71.8°F22.1°C 63.8°F17.7°C 76% 2.3 mph ESE3.7 kmh ESE 3.5 mph5.6 kmh 31.83 in1077.9 mb - 0.00 in0.0 mm 0.01 in0.3 mm
02:20 PM 72.1°F22.3°C 65.2°F18.4°C 79% 2.3 mph ESE3.7 kmh ESE 3.5 mph5.6 kmh 31.83 in1077.9 mb - 0.00 in0.0 mm 0.01 in0.3 mm
02:25 PM 71.6°F22.0°C 65.1°F18.4°C 80% 2.3 mph ESE3.7 kmh ESE 4.6 mph7.4 kmh 31.83 in1077.9 mb - 0.00 in0.0 mm 0.01 in0.3 mm
02:30 PM 71.6°F22.0°C 64.8°F18.2°C 79% 3.5 mph SE5.6 kmh SE 3.5 mph5.6 kmh 31.83 in1077.9 mb - 0.00 in0.0 mm 0.01 in0.3 mm
02:35 PM 71.9°F22.2°C 64.6°F18.1°C 78% 2.3 mph SSE3.7 kmh SSE 3.5 mph5.6 kmh 31.83 in1077.9 mb - 0.00 in0.0 mm 0.01 in0.3 mm
02:40 PM 71.7°F22.1°C 64.8°F18.2°C 79% 2.3 mph E3.7 kmh E 2.3 mph3.7 kmh 31.83 in1077.9 mb - 0.00 in0.0 mm 0.01 in0.3 mm
02:45 PM 71.5°F21.9°C 64.6°F18.1°C 79% 2.3 mph ESE3.7 kmh ESE 2.3 mph3.7 kmh 31.83 in1077.9 mb - 0.00 in0.0 mm 0.01 in0.3 mm
02:50 PM 71.4°F21.9°C 64.5°F18.1°C 79% 2.3 mph E3.7 kmh E 3.5 mph5.6 kmh 31.83 in1077.9 mb - 0.00 in0.0 mm 0.01 in0.3 mm
02:55 PM 71.0°F21.7°C 64.5°F18.1°C 80% 2.3 mph ESE3.7 kmh ESE 3.5 mph5.6 kmh 31.83 in1077.9 mb - 0.00 in0.0 mm 0.01 in0.3 mm
03:00 PM 72.2°F22.3°C 65.7°F18.7°C 80% 3.5 mph ESE5.6 kmh ESE 3.5 mph5.6 kmh 31.83 in1077.9 mb - 0.00 in0.0 mm 0.01 in0.3 mm
03:10 PM 72.1°F22.3°C 65.2°F18.4°C 79% 2.3 mph SE3.7 kmh SE 3.5 mph5.6 kmh 31.83 in1077.9 mb - 0.00 in0.0 mm 0.01 in0.3 mm
03:15 PM 71.8°F22.1°C 65.3°F18.5°C 80% 3.5 mph SE5.6 kmh SE 3.5 mph5.6 kmh 31.83 in1077.9 mb - 0.00 in0.0 mm 0.01 in0.3 mm
03:20 PM 71.6°F22.0°C 65.1°F18.4°C 80% 2.3 mph ESE3.7 kmh ESE 3.5 mph5.6 kmh 31.83 in1077.9 mb - 0.00 in0.0 mm 0.01 in0.3 mm
03:25 PM 71.6°F22.0°C 64.7°F18.2°C 79% 2.3 mph ESE3.7 kmh ESE 3.5 mph5.6 kmh 31.83 in1077.9 mb - 0.00 in0.0 mm 0.01 in0.3 mm
03:30 PM 71.8°F22.1°C 64.9°F18.3°C 79% 2.3 mph SSE3.7 kmh SSE 2.3 mph3.7 kmh 31.83 in1077.9 mb - 0.00 in0.0 mm 0.01 in0.3 mm
03:35 PM 72.2°F22.3°C 65.7°F18.7°C 80% 2.3 mph SSW3.7 kmh SSW 2.3 mph3.7 kmh 31.83 in1077.9 mb - 0.00 in0.0 mm 0.01 in0.3 mm
03:40 PM 71.3°F21.8°C 65.1°F18.4°C 81% 2.3 mph SE3.7 kmh SE 2.3 mph3.7 kmh 31.83 in1077.9 mb - 0.00 in0.0 mm 0.01 in0.3 mm
03:45 PM 71.3°F21.8°C 65.1°F18.4°C 81% 2.3 mph SSE3.7 kmh SSE 2.3 mph3.7 kmh 31.83 in1077.9 mb - 0.00 in0.0 mm 0.01 in0.3 mm
03:50 PM 70.9°F21.6°C 64.8°F18.2°C 81% 2.3 mph S3.7 kmh S 2.3 mph3.7 kmh 31.83 in1077.9 mb - 0.00 in0.0 mm 0.01 in0.3 mm
03:55 PM 70.9°F21.6°C 64.8°F18.2°C 81% 2.3 mph ESE3.7 kmh ESE 2.3 mph3.7 kmh 31.83 in1077.9 mb - 0.00 in0.0 mm 0.01 in0.3 mm
04:00 PM 71.1°F21.7°C 64.6°F18.1°C 80% 2.3 mph SE3.7 kmh SE 2.3 mph3.7 kmh 31.83 in1077.9 mb - 0.00 in0.0 mm 0.01 in0.3 mm
04:10 PM 71.3°F21.8°C 65.1°F18.4°C 81% 2.3 mph SE3.7 kmh SE 2.3 mph3.7 kmh 31.83 in1077.9 mb - 0.00 in0.0 mm 0.01 in0.3 mm
04:15 PM 71.3°F21.8°C 65.1°F18.4°C 81% 2.3 mph SE3.7 kmh SE 2.3 mph3.7 kmh 31.83 in1077.9 mb - 0.00 in0.0 mm 0.01 in0.3 mm
04:20 PM 71.2°F21.8°C 65.1°F18.4°C 81% 2.3 mph ESE3.7 kmh ESE 2.3 mph3.7 kmh 31.83 in1077.9 mb - 0.00 in0.0 mm 0.01 in0.3 mm
04:25 PM 71.0°F21.7°C 64.9°F18.3°C 81% 2.3 mph S3.7 kmh S 2.3 mph3.7 kmh 31.83 in1077.9 mb - 0.00 in0.0 mm 0.01 in0.3 mm
04:30 PM 71.8°F22.1°C 65.3°F18.5°C 80% 2.3 mph S3.7 kmh S 2.3 mph3.7 kmh 31.83 in1077.9 mb - 0.00 in0.0 mm 0.01 in0.3 mm
04:35 PM 72.2°F22.3°C 65.3°F18.5°C 79% 2.3 mph ESE3.7 kmh ESE 2.3 mph3.7 kmh 31.83 in1077.9 mb - 0.00 in0.0 mm 0.01 in0.3 mm
04:40 PM 72.2°F22.3°C 65.7°F18.7°C 80% 2.3 mph E3.7 kmh E 3.5 mph5.6 kmh 31.83 in1077.9 mb - 0.00 in0.0 mm 0.01 in0.3 mm
04:45 PM 72.2°F22.3°C 66.0°F18.9°C 81% 2.3 mph SE3.7 kmh SE 2.3 mph3.7 kmh 31.83 in1077.9 mb - 0.00 in0.0 mm 0.01 in0.3 mm
04:50 PM 72.1°F22.3°C 65.6°F18.7°C 80% 2.3 mph ESE3.7 kmh ESE 2.3 mph3.7 kmh 31.83 in1077.9 mb - 0.00 in0.0 mm 0.01 in0.3 mm
04:55 PM 71.8°F22.1°C 65.3°F18.5°C 80% 2.3 mph ESE3.7 kmh ESE 2.3 mph3.7 kmh 31.83 in1077.9 mb - 0.00 in0.0 mm 0.01 in0.3 mm
05:00 PM 71.3°F21.8°C 65.5°F18.6°C 82% 2.3 mph S3.7 kmh S 2.3 mph3.7 kmh 31.83 in1077.9 mb - 0.00 in0.0 mm 0.01 in0.3 mm
05:10 PM 70.9°F21.6°C 65.5°F18.6°C 83% Calm Calm -- 31.83 in1077.9 mb - 0.00 in0.0 mm 0.01 in0.3 mm
05:15 PM 70.8°F21.6°C 65.8°F18.8°C 84% Calm Calm -- 31.83 in1077.9 mb - 0.00 in0.0 mm 0.01 in0.3 mm
05:20 PM 70.7°F21.5°C 64.9°F18.3°C 82% Calm Calm 1.2 mph1.9 kmh 31.83 in1077.9 mb - 0.00 in0.0 mm 0.01 in0.3 mm
05:25 PM 70.4°F21.3°C 65.3°F18.5°C 84% 1.2 mph SE1.9 kmh SE 1.2 mph1.9 kmh 31.83 in1077.9 mb - 0.00 in0.0 mm 0.01 in0.3 mm
05:30 PM 70.5°F21.4°C 64.7°F18.2°C 82% 1.2 mph SE1.9 kmh SE 1.2 mph1.9 kmh 31.83 in1077.9 mb - 0.00 in0.0 mm 0.01 in0.3 mm
05:35 PM 70.7°F21.5°C 64.2°F17.9°C 80% 1.2 mph SE1.9 kmh SE 1.2 mph1.9 kmh 31.83 in1077.9 mb - 0.00 in0.0 mm 0.01 in0.3 mm
05:40 PM 70.7°F21.5°C 64.2°F17.9°C 80% 1.2 mph SE1.9 kmh SE 1.2 mph1.9 kmh 31.83 in1077.9 mb - 0.00 in0.0 mm 0.01 in0.3 mm
05:45 PM 71.3°F21.8°C 64.8°F18.2°C 80% 2.3 mph SE3.7 kmh SE 2.3 mph3.7 kmh 31.83 in1077.9 mb - 0.00 in0.0 mm 0.01 in0.3 mm
05:50 PM 72.3°F22.4°C 65.0°F18.3°C 78% 1.2 mph SE1.9 kmh SE 2.3 mph3.7 kmh 31.83 in1077.9 mb - 0.00 in0.0 mm 0.01 in0.3 mm
05:55 PM 72.3°F22.4°C 65.0°F18.3°C 78% 1.2 mph SE1.9 kmh SE 1.2 mph1.9 kmh 31.83 in1077.9 mb - 0.00 in0.0 mm 0.01 in0.3 mm
06:00 PM 72.3°F22.4°C 64.7°F18.2°C 77% 1.2 mph SE1.9 kmh SE 1.2 mph1.9 kmh 31.83 in1077.9 mb - 0.00 in0.0 mm 0.01 in0.3 mm
06:10 PM 72.2°F22.3°C 65.3°F18.5°C 79% 1.2 mph SE1.9 kmh SE 1.2 mph1.9 kmh 31.83 in1077.9 mb - 0.00 in0.0 mm 0.01 in0.3 mm
06:15 PM 72.2°F22.3°C 64.9°F18.3°C 78% 1.2 mph SSE1.9 kmh SSE 1.2 mph1.9 kmh 31.83 in1077.9 mb - 0.00 in0.0 mm 0.01 in0.3 mm
06:20 PM 72.0°F22.2°C 65.1°F18.4°C 79% Calm Calm -- 31.83 in1077.9 mb - 0.00 in0.0 mm 0.01 in0.3 mm
06:25 PM 72.0°F22.2°C 65.1°F18.4°C 79% Calm Calm 2.3 mph3.7 kmh 31.83 in1077.9 mb - 0.00 in0.0 mm 0.01 in0.3 mm
06:30 PM 72.2°F22.3°C 65.0°F18.3°C 78% Calm Calm 2.3 mph3.7 kmh 31.83 in1077.9 mb - 0.00 in0.0 mm 0.01 in0.3 mm
06:35 PM 72.5°F22.5°C 65.3°F18.5°C 78% Calm Calm -- 31.83 in1077.9 mb - 0.00 in0.0 mm 0.01 in0.3 mm
06:40 PM 72.5°F22.5°C 65.2°F18.4°C 78% 1.2 mph SE1.9 kmh SE 1.2 mph1.9 kmh 31.83 in1077.9 mb - 0.00 in0.0 mm 0.01 in0.3 mm
06:45 PM 72.5°F22.5°C 65.2°F18.4°C 78% Calm Calm -- 31.83 in1077.9 mb - 0.00 in0.0 mm 0.01 in0.3 mm
06:50 PM 72.4°F22.4°C 65.2°F18.4°C 78% 1.2 mph SE1.9 kmh SE 2.3 mph3.7 kmh 31.83 in1077.9 mb - 0.00 in0.0 mm 0.01 in0.3 mm
06:55 PM 72.2°F22.3°C 65.3°F18.5°C 79% 1.2 mph SE1.9 kmh SE 1.2 mph1.9 kmh 31.83 in1077.9 mb - 0.00 in0.0 mm 0.01 in0.3 mm
07:00 PM 71.7°F22.1°C 64.8°F18.2°C 79% Calm Calm -- 31.83 in1077.9 mb - 0.00 in0.0 mm 0.01 in0.3 mm
07:10 PM 71.5°F21.9°C 64.6°F18.1°C 79% 1.2 mph SE1.9 kmh SE 1.2 mph1.9 kmh 31.83 in1077.9 mb - 0.00 in0.0 mm 0.01 in0.3 mm
07:15 PM 71.4°F21.9°C 64.9°F18.3°C 80% Calm Calm -- 31.83 in1077.9 mb - 0.00 in0.0 mm 0.01 in0.3 mm
07:20 PM 71.3°F21.8°C 64.8°F18.2°C 80% Calm Calm -- 31.83 in1077.9 mb - 0.00 in0.0 mm 0.01 in0.3 mm
07:25 PM 71.1°F21.7°C 64.6°F18.1°C 80% Calm Calm -- 31.83 in1077.9 mb - 0.00 in0.0 mm 0.01 in0.3 mm
07:30 PM 70.9°F21.6°C 64.8°F18.2°C 81% Calm Calm -- 31.83 in1077.9 mb - 0.00 in0.0 mm 0.01 in0.3 mm
07:35 PM 70.9°F21.6°C 64.8°F18.2°C 81% Calm Calm -- 31.83 in1077.9 mb - 0.00 in0.0 mm 0.01 in0.3 mm
07:40 PM 70.9°F21.6°C 64.8°F18.2°C 81% Calm Calm -- 31.83 in1077.9 mb - 0.00 in0.0 mm 0.01 in0.3 mm
07:45 PM 70.7°F21.5°C 64.6°F18.1°C 81% Calm Calm 1.2 mph1.9 kmh 31.83 in1077.9 mb - 0.00 in0.0 mm 0.01 in0.3 mm
07:50 PM 70.5°F21.4°C 64.4°F18.0°C 81% Calm Calm 1.2 mph1.9 kmh 31.83 in1077.9 mb - 0.00 in0.0 mm 0.01 in0.3 mm
07:55 PM 70.5°F21.4°C 64.4°F18.0°C 81% Calm Calm -- 31.83 in1077.9 mb - 0.00 in0.0 mm 0.01 in0.3 mm
08:00 PM 70.4°F21.3°C 64.3°F17.9°C 81% Calm Calm -- 31.83 in1077.9 mb - 0.00 in0.0 mm 0.01 in0.3 mm
08:10 PM 70.4°F21.3°C 64.6°F18.1°C 82% 1.2 mph S1.9 kmh S 1.2 mph1.9 kmh 31.83 in1077.9 mb - 0.00 in0.0 mm 0.01 in0.3 mm